Time;durP1;ratioP1;P1;durP2;ratioP2;P2;SDS_P1;SDS_P2;PMS_P1;PMS_P2;Temp;Humidity;BMP_temperature;BMP_pressure;BME280_temperature;BME280_humidity;BME280_pressure;Samples;Min_cycle;Max_cycle;Signal;HPM_P1;HPM_P2
2023/04/22 00:00:20;;;;;;;11.55;7.50;;;4.60;99.90;;;;;;5094861;28;20024;-77
2023/04/22 00:02:46;;;;;;;12.00;7.38;;;4.60;99.90;;;;;;5094705;28;20485;-77
2023/04/22 00:05:13;;;;;;;9.07;6.95;;;4.60;99.90;;;;;;5096090;28;20389;-77
2023/04/22 00:07:41;;;;;;;9.32;7.20;;;4.50;99.90;;;;;;5094617;28;20032;-77
2023/04/22 00:10:09;;;;;;;8.15;6.65;;;4.50;99.90;;;;;;5094780;28;20016;-77
2023/04/22 00:12:34;;;;;;;11.27;7.75;;;4.50;99.90;;;;;;5094610;28;20020;-77
2023/04/22 00:15:00;;;;;;;11.65;7.45;;;4.50;99.90;;;;;;5094558;28;20028;-77
2023/04/22 00:17:26;;;;;;;14.38;9.45;;;4.50;99.90;;;;;;5095673;28;20371;-77
2023/04/22 00:19:53;;;;;;;14.02;8.98;;;4.40;99.90;;;;;;5094461;28;20024;-77
2023/04/22 00:22:18;;;;;;;16.85;11.43;;;4.30;99.90;;;;;;5095560;28;20020;-77
2023/04/22 00:24:44;;;;;;;18.70;9.43;;;4.20;99.90;;;;;;5094357;28;20385;-77
2023/04/22 00:27:10;;;;;;;12.43;7.68;;;4.10;99.90;;;;;;5095536;28;20500;-77
2023/04/22 00:29:36;;;;;;;13.20;8.90;;;4.10;99.90;;;;;;5095661;28;20028;-77
2023/04/22 00:32:01;;;;;;;10.85;7.90;;;4.10;99.90;;;;;;5095329;28;20051;-77
2023/04/22 00:34:27;;;;;;;15.25;10.65;;;4.10;99.90;;;;;;5095166;28;20023;-77
2023/04/22 00:36:53;;;;;;;17.83;11.30;;;4.10;99.90;;;;;;5095162;28;20028;-77
2023/04/22 00:39:19;;;;;;;12.98;9.20;;;4.00;99.90;;;;;;5094064;28;20047;-77
2023/04/22 00:41:45;;;;;;;14.90;9.70;;;3.90;99.90;;;;;;5093951;28;20465;-77
2023/04/22 00:44:11;;;;;;;15.20;9.02;;;3.90;99.90;;;;;;5093970;28;20023;-77
2023/04/22 00:46:38;;;;;;;10.23;8.05;;;3.90;99.90;;;;;;5092844;28;20101;-77
2023/04/22 00:49:05;;;;;;;13.60;8.15;;;3.90;99.90;;;;;;5067660;28;20029;-77
2023/04/22 00:51:31;;;;;;;10.95;6.93;;;3.90;99.90;;;;;;5053352;28;20032;-77
2023/04/22 00:53:57;;;;;;;12.23;8.07;;;3.90;99.90;;;;;;5053625;28;20025;-76
2023/04/22 00:56:25;;;;;;;13.00;9.15;;;3.90;99.90;;;;;;5053360;28;20019;-77
2023/04/22 00:58:52;;;;;;;13.30;8.73;;;3.90;99.90;;;;;;5054701;28;20025;-77
2023/04/22 01:01:18;;;;;;;14.77;9.70;;;3.80;99.90;;;;;;5054254;28;20068;-77
2023/04/22 01:03:46;;;;;;;12.15;9.40;;;3.70;99.90;;;;;;5054538;28;20025;-77
2023/04/22 01:06:12;;;;;;;13.85;9.18;;;3.80;99.90;;;;;;5054635;28;20094;-77
2023/04/22 01:08:39;;;;;;;12.45;8.00;;;3.70;99.90;;;;;;5054434;28;20033;-77
2023/04/22 01:11:05;;;;;;;9.18;6.93;;;3.70;99.90;;;;;;5054714;28;20064;-77
2023/04/22 01:13:31;;;;;;;11.98;7.22;;;3.60;99.90;;;;;;5054389;28;20028;-77
2023/04/22 01:15:58;;;;;;;10.23;7.10;;;3.60;99.90;;;;;;5053211;28;20025;-78
2023/04/22 01:18:25;;;;;;;11.30;8.05;;;3.60;99.90;;;;;;5054348;28;20028;-77
2023/04/22 01:20:51;;;;;;;10.15;7.03;;;3.60;99.90;;;;;;5054252;28;20494;-77
2023/04/22 01:23:20;;;;;;;10.30;6.95;;;3.60;99.90;;;;;;5053038;28;20017;-77
2023/04/22 01:25:47;;;;;;;8.75;6.05;;;3.50;99.90;;;;;;5052928;28;20031;-77
2023/04/22 01:28:14;;;;;;;10.68;6.57;;;3.50;99.90;;;;;;5054297;28;20500;-77
2023/04/22 01:30:41;;;;;;;11.23;7.45;;;3.50;99.90;;;;;;5054065;28;20025;-77
2023/04/22 01:33:08;;;;;;;11.93;7.75;;;3.50;99.90;;;;;;5056964;28;20043;-77
2023/04/22 01:35:35;;;;;;;12.82;7.70;;;3.50;99.90;;;;;;5072687;28;20067;-77
2023/04/22 01:38:09;;;;;;;9.48;7.10;;;3.50;99.90;;;;;;5072597;28;20033;-77
2023/04/22 01:40:36;;;;;;;9.32;7.57;;;3.50;99.90;;;;;;5072734;28;20054;-78
2023/04/22 01:43:02;;;;;;;10.48;6.80;;;3.40;99.90;;;;;;5073900;28;20024;-77
2023/04/22 01:45:28;;;;;;;8.18;6.85;;;3.40;99.90;;;;;;5072561;28;20026;-77
2023/04/22 01:47:54;;;;;;;10.43;6.43;;;3.40;99.90;;;;;;5072671;28;20048;-77
2023/04/22 01:50:21;;;;;;;7.80;6.72;;;3.40;99.90;;;;;;5073778;28;20028;-77
2023/04/22 01:52:46;;;;;;;19.20;11.40;;;3.40;99.90;;;;;;5073717;28;20086;-77
2023/04/22 01:55:12;;;;;;;16.77;10.20;;;3.50;99.90;;;;;;5073724;28;20017;-77
2023/04/22 01:57:38;;;;;;;14.13;8.98;;;3.50;99.90;;;;;;5073228;28;20037;-77
2023/04/22 02:00:05;;;;;;;9.93;7.25;;;3.60;99.90;;;;;;5072368;28;20009;-77
2023/04/22 02:02:30;;;;;;;10.18;6.68;;;3.60;99.90;;;;;;5073382;28;20074;-77
2023/04/22 02:04:56;;;;;;;10.10;7.30;;;3.60;99.90;;;;;;5073662;28;20506;-77
2023/04/22 02:07:22;;;;;;;12.60;7.53;;;3.60;99.90;;;;;;5072294;28;20020;-76
2023/04/22 02:09:48;;;;;;;14.73;9.32;;;3.60;99.90;;;;;;5073506;28;20020;-76
2023/04/22 02:12:14;;;;;;;12.93;8.88;;;3.60;99.90;;;;;;5073293;28;20027;-77
2023/04/22 02:14:39;;;;;;;12.07;7.72;;;3.50;99.90;;;;;;5073551;28;20024;-77
2023/04/22 02:17:05;;;;;;;16.38;9.23;;;3.40;99.90;;;;;;5072080;28;20390;-77
2023/04/22 02:19:31;;;;;;;11.77;8.85;;;3.30;99.90;;;;;;5073595;28;20032;-77
2023/04/22 02:21:57;;;;;;;10.65;8.00;;;3.20;99.90;;;;;;5073453;28;20036;-77
2023/04/22 02:24:22;;;;;;;14.02;8.55;;;3.10;99.90;;;;;;5073555;28;20029;-77
2023/04/22 02:26:48;;;;;;;11.55;7.93;;;3.00;99.90;;;;;;5073277;28;20052;-77
2023/04/22 02:29:15;;;;;;;13.20;8.65;;;2.90;99.90;;;;;;5073391;28;20032;-77
2023/04/22 02:31:41;;;;;;;15.38;9.45;;;2.80;99.90;;;;;;5071742;28;20393;-77
2023/04/22 02:34:06;;;;;;;13.73;8.48;;;2.80;99.90;;;;;;5072054;28;20031;-77
2023/04/22 02:36:33;;;;;;;13.82;8.77;;;2.80;99.90;;;;;;5071882;28;20077;-76
2023/04/22 02:39:00;;;;;;;12.52;8.82;;;2.80;99.90;;;;;;5073234;28;20020;-77
2023/04/22 02:41:26;;;;;;;14.68;8.30;;;2.80;99.90;;;;;;5073224;28;20385;-77
2023/04/22 02:43:51;;;;;;;10.88;7.93;;;2.80;99.90;;;;;;5073200;28;20016;-77
2023/04/22 02:46:17;;;;;;;9.88;7.25;;;2.80;99.90;;;;;;5073222;28;20025;-77
2023/04/22 02:48:43;;;;;;;9.07;6.40;;;2.80;99.90;;;;;;5073214;28;20021;-78
2023/04/22 02:51:09;;;;;;;13.75;7.45;;;2.90;99.90;;;;;;5073128;28;20021;-77
2023/04/22 02:53:35;;;;;;;9.65;7.50;;;2.90;99.90;;;;;;5073065;28;20028;-77
2023/04/22 02:56:00;;;;;;;11.13;7.72;;;2.90;99.90;;;;;;5073160;28;20055;-77
2023/04/22 02:58:26;;;;;;;12.48;7.75;;;2.90;99.90;;;;;;5072980;28;20032;-77
2023/04/22 03:00:52;;;;;;;12.20;7.82;;;2.90;99.90;;;;;;5071795;28;20021;-77
2023/04/22 03:03:18;;;;;;;11.60;7.72;;;2.90;99.90;;;;;;5073113;28;20029;-77
2023/04/22 03:05:44;;;;;;;14.82;7.80;;;2.90;99.90;;;;;;5072988;28;20104;-77
2023/04/22 03:08:09;;;;;;;12.45;7.70;;;2.90;99.90;;;;;;5072882;28;20025;-77
2023/04/22 03:10:35;;;;;;;11.80;8.13;;;2.90;99.90;;;;;;5073813;28;20032;-77
2023/04/22 03:13:01;;;;;;;11.50;8.10;;;2.90;99.90;;;;;;5076937;28;20020;-77
2023/04/22 03:15:26;;;;;;;11.75;9.15;;;2.90;99.90;;;;;;5076755;28;20141;-77
2023/04/22 03:17:52;;;;;;;13.38;8.50;;;2.90;99.90;;;;;;5076664;28;20512;-77
2023/04/22 03:20:18;;;;;;;15.98;9.00;;;2.90;99.90;;;;;;5076814;28;20466;-77
2023/04/22 03:22:44;;;;;;;15.27;9.13;;;2.80;99.90;;;;;;5076547;28;20095;-77
2023/04/22 03:25:10;;;;;;;17.40;8.63;;;2.80;99.90;;;;;;5075294;28;20515;-77
2023/04/22 03:27:36;;;;;;;13.93;8.63;;;2.70;99.90;;;;;;5076497;28;20496;-77
2023/04/22 03:30:03;;;;;;;11.23;7.78;;;2.70;99.90;;;;;;5075149;28;20025;-77
2023/04/22 03:32:28;;;;;;;12.85;7.75;;;2.70;99.90;;;;;;5074953;28;20067;-77
2023/04/22 03:34:54;;;;;;;14.40;7.43;;;2.70;99.90;;;;;;5075046;28;20012;-76
2023/04/22 03:37:20;;;;;;;15.05;7.88;;;2.70;99.90;;;;;;5075031;28;20032;-77
2023/04/22 03:39:45;;;;;;;10.35;6.57;;;2.70;99.90;;;;;;5076280;28;20055;-77
2023/04/22 03:42:12;;;;;;;8.27;6.90;;;2.70;99.90;;;;;;5074984;28;20530;-77
2023/04/22 03:44:38;;;;;;;9.38;6.68;;;2.70;99.90;;;;;;5076080;28;20043;-77
2023/04/22 03:47:04;;;;;;;9.82;7.45;;;2.70;99.90;;;;;;5074878;28;20020;-77
2023/04/22 03:49:29;;;;;;;8.77;6.30;;;2.70;99.90;;;;;;5074875;28;20020;-77
2023/04/22 03:51:55;;;;;;;11.20;6.60;;;2.70;99.90;;;;;;5075917;28;20021;-77
2023/04/22 03:54:20;;;;;;;10.88;7.40;;;2.70;99.90;;;;;;5076126;28;20028;-76
2023/04/22 03:56:46;;;;;;;12.82;7.05;;;2.70;99.90;;;;;;5075781;28;20028;-77
2023/04/22 03:59:12;;;;;;;11.63;7.47;;;2.70;99.90;;;;;;5074735;28;20032;-77
2023/04/22 04:01:37;;;;;;;10.60;6.80;;;2.70;99.90;;;;;;5074498;28;20146;-77
2023/04/22 04:04:03;;;;;;;14.73;7.90;;;2.70;99.90;;;;;;5075727;28;20020;-76
2023/04/22 04:06:28;;;;;;;13.10;8.30;;;2.70;99.90;;;;;;5074427;28;20574;-77
2023/04/22 04:08:54;;;;;;;11.80;8.27;;;2.70;99.90;;;;;;5075848;28;20024;-77
2023/04/22 04:11:20;;;;;;;10.50;7.70;;;2.70;99.90;;;;;;5074574;28;20020;-77
2023/04/22 04:13:46;;;;;;;13.07;7.43;;;2.70;99.90;;;;;;5074405;28;20025;-77
2023/04/22 04:16:11;;;;;;;11.30;8.27;;;2.70;99.90;;;;;;5074322;28;20028;-77
2023/04/22 04:18:37;;;;;;;20.17;11.07;;;2.80;99.90;;;;;;5074147;28;20033;-77
2023/04/22 04:21:03;;;;;;;17.25;9.82;;;2.80;99.90;;;;;;5075454;28;20028;-76
2023/04/22 04:23:29;;;;;;;19.63;9.25;;;2.80;99.90;;;;;;5074139;28;20025;-77
2023/04/22 04:25:54;;;;;;;10.98;7.90;;;2.80;99.90;;;;;;5075622;28;20024;-77
2023/04/22 04:28:20;;;;;;;10.25;5.55;;;2.80;99.90;;;;;;5075415;28;20117;-77
2023/04/22 04:30:46;;;;;;;8.43;6.10;;;2.90;99.90;;;;;;5073898;28;20490;-77
2023/04/22 04:33:12;;;;;;;7.60;5.72;;;3.10;99.90;;;;;;5074432;28;20097;-77
2023/04/22 04:35:38;;;;;;;7.53;5.82;;;3.20;99.90;;;;;;5073220;28;20013;-77
2023/04/22 04:38:04;;;;;;;8.23;5.85;;;3.30;99.90;;;;;;5073363;28;20493;-77
2023/04/22 04:40:31;;;;;;;11.15;6.13;;;3.50;99.90;;;;;;5073326;28;20482;-77
2023/04/22 04:42:56;;;;;;;13.02;8.57;;;3.60;99.90;;;;;;5072884;28;20107;-77
2023/04/22 04:45:23;;;;;;;10.10;7.32;;;3.60;99.90;;;;;;5074495;28;20078;-77
2023/04/22 04:47:52;;;;;;;14.25;8.10;;;3.60;99.90;;;;;;5074547;28;20035;-77
2023/04/22 04:50:19;;;;;;;11.10;7.60;;;3.60;99.90;;;;;;5074398;28;20020;-77
2023/04/22 04:52:45;;;;;;;14.43;8.10;;;3.70;99.90;;;;;;5074296;28;20420;-77
2023/04/22 04:55:11;;;;;;;12.65;7.53;;;3.70;99.90;;;;;;5073139;28;20028;-77
2023/04/22 04:57:36;;;;;;;11.27;7.40;;;3.70;99.90;;;;;;5072891;28;20031;-77
2023/04/22 05:00:02;;;;;;;11.52;7.13;;;3.80;99.90;;;;;;5074399;28;20039;-77
2023/04/22 05:02:28;;;;;;;10.77;6.50;;;3.90;99.90;;;;;;5074150;28;20147;-77
2023/04/22 05:04:53;;;;;;;21.08;7.55;;;4.00;99.90;;;;;;5070166;28;20019;-77
2023/04/22 05:07:19;;;;;;;9.65;6.55;;;4.20;99.90;;;;;;5072839;28;20085;-76
2023/04/22 05:09:45;;;;;;;9.40;6.78;;;4.30;99.90;;;;;;5074106;28;20025;-77
2023/04/22 05:12:10;;;;;;;8.80;6.30;;;4.50;99.90;;;;;;5073884;28;20413;-77
2023/04/22 05:14:36;;;;;;;9.57;5.65;;;4.70;99.90;;;;;;5072682;28;20020;-77
2023/04/22 05:17:02;;;;;;;6.05;5.45;;;5.00;99.90;;;;;;5073456;28;20024;-78
2023/04/22 05:19:28;;;;;;;9.20;6.22;;;5.20;99.90;;;;;;5070889;28;20016;-77
2023/04/22 05:21:53;;;;;;;8.50;6.50;;;5.40;99.90;;;;;;5072260;28;20043;-77
2023/04/22 05:24:20;;;;;;;9.65;6.63;;;5.60;99.90;;;;;;5070942;28;20477;-77
2023/04/22 05:26:46;;;;;;;7.75;6.30;;;5.80;99.90;;;;;;5071997;28;20009;-77
2023/04/22 05:29:11;;;;;;;10.18;7.03;;;6.00;99.90;;;;;;5070931;28;20040;-77
2023/04/22 05:31:37;;;;;;;9.65;6.85;;;6.20;99.90;;;;;;5072164;28;20044;-77
2023/04/22 05:34:02;;;;;;;10.52;7.03;;;6.40;99.90;;;;;;5069968;28;20119;-77
2023/04/22 05:36:28;;;;;;;15.70;11.15;;;6.60;99.90;;;;;;5072016;28;20013;-77
2023/04/22 05:38:54;;;;;;;28.10;15.32;;;6.90;99.90;;;;;;5071915;28;20035;-78
2023/04/22 05:41:19;;;;;;;18.83;10.18;;;7.10;99.90;;;;;;5071797;28;20028;-77
2023/04/22 05:43:45;;;;;;;18.85;9.95;;;7.40;99.90;;;;;;5070452;28;20043;-77
2023/04/22 05:46:11;;;;;;;19.50;10.98;;;7.70;99.90;;;;;;5072262;28;20028;-77
2023/04/22 05:48:36;;;;;;;18.02;11.35;;;8.00;99.90;;;;;;5071820;28;20028;-77
2023/04/22 05:51:02;;;;;;;16.30;8.45;;;8.30;99.90;;;;;;5070270;28;20028;-77
2023/04/22 05:53:27;;;;;;;11.90;7.43;;;8.60;99.90;;;;;;5070401;28;20027;-77
2023/04/22 05:55:54;;;;;;;8.13;6.00;;;8.90;99.90;;;;;;5070251;28;20019;-77
2023/04/22 05:58:19;;;;;;;9.85;6.13;;;9.30;81.40;;;;;;5070303;28;20036;-77
2023/04/22 06:00:45;;;;;;;11.80;6.85;;;9.70;73.70;;;;;;5071338;28;20027;-78
2023/04/22 06:03:11;;;;;;;15.10;7.00;;;10.00;69.40;;;;;;5071468;28;20031;-78
2023/04/22 06:05:36;;;;;;;16.42;8.57;;;10.30;69.40;;;;;;5072714;28;20020;-78
2023/04/22 06:08:02;;;;;;;13.70;8.40;;;10.70;72.00;;;;;;5070775;28;20035;-77
2023/04/22 06:10:28;;;;;;;17.63;9.85;;;10.90;71.30;;;;;;5071759;28;20497;-77
2023/04/22 06:12:53;;;;;;;16.58;9.63;;;11.20;70.50;;;;;;5070629;28;20162;-78
2023/04/22 06:15:20;;;;;;;12.05;7.32;;;11.40;67.30;;;;;;5071003;28;20024;-78
2023/04/22 06:17:47;;;;;;;11.55;7.05;;;11.70;63.50;;;;;;5071791;28;20059;-78
2023/04/22 06:20:13;;;;;;;12.55;7.82;;;11.90;60.80;;;;;;5071620;28;20021;-78
2023/04/22 06:22:38;;;;;;;14.15;8.45;;;12.10;60.70;;;;;;5071489;28;20021;-78
2023/04/22 06:25:05;;;;;;;13.27;6.68;;;12.30;60.30;;;;;;5071612;28;20429;-77
2023/04/22 06:27:30;;;;;;;11.02;6.88;;;12.60;60.90;;;;;;5071463;28;20028;-78
2023/04/22 06:29:56;;;;;;;8.35;5.97;;;12.80;60.10;;;;;;5071445;28;20515;-77
2023/04/22 06:32:21;;;;;;;7.55;5.25;;;12.90;57.90;;;;;;5071599;28;20044;-78
2023/04/22 06:34:47;;;;;;;9.95;5.70;;;13.10;57.50;;;;;;5071674;28;20028;-78
2023/04/22 06:37:13;;;;;;;8.45;5.00;;;13.20;55.80;;;;;;5072614;28;20021;-77
2023/04/22 06:39:38;;;;;;;8.27;5.07;;;13.40;54.50;;;;;;5071161;28;20017;-77
2023/04/22 06:42:04;;;;;;;7.30;5.15;;;13.50;54.90;;;;;;5061678;28;20029;-77
2023/04/22 06:44:31;;;;;;;5.30;3.75;;;13.70;54.10;;;;;;5065931;28;20029;-77
2023/04/22 06:46:56;;;;;;;5.78;3.40;;;13.80;51.90;;;;;;5075646;28;20070;-77
2023/04/22 06:49:22;;;;;;;4.18;3.80;;;13.90;50.00;;;;;;5074927;28;20024;-78
2023/04/22 06:51:47;;;;;;;6.15;4.25;;;14.10;50.90;;;;;;5075167;28;20024;-78
2023/04/22 06:54:13;;;;;;;5.18;4.00;;;14.20;50.70;;;;;;5074192;28;20058;-77
2023/04/22 06:56:39;;;;;;;5.32;3.97;;;14.30;49.40;;;;;;5076183;28;20017;-77
2023/04/22 06:59:06;;;;;;;6.60;4.07;;;14.40;48.60;;;;;;5075935;28;20029;-77
2023/04/22 07:01:32;;;;;;;5.43;3.97;;;14.50;47.70;;;;;;5073211;28;20044;-77
2023/04/22 07:03:57;;;;;;;5.22;3.50;;;14.60;46.70;;;;;;5075055;28;20016;-77
2023/04/22 07:06:23;;;;;;;6.40;4.55;;;14.80;47.60;;;;;;5075831;28;20370;-77
2023/04/22 07:08:49;;;;;;;4.70;3.60;;;15.00;48.10;;;;;;5075274;28;20164;-77
2023/04/22 07:11:14;;;;;;;4.45;3.53;;;15.10;46.90;;;;;;5074899;28;20119;-77
2023/04/22 07:13:40;;;;;;;6.00;3.63;;;15.20;45.70;;;;;;5074436;28;20031;-77
2023/04/22 07:16:06;;;;;;;13.40;4.65;;;15.40;45.50;;;;;;5075183;28;20024;-76
2023/04/22 07:18:32;;;;;;;5.80;3.90;;;15.40;44.40;;;;;;5076243;28;20454;-77
2023/04/22 07:20:57;;;;;;;5.82;3.80;;;15.60;45.70;;;;;;5078025;28;20016;-77
2023/04/22 07:23:23;;;;;;;8.35;3.90;;;15.70;45.10;;;;;;5074231;28;20100;-77
2023/04/22 07:25:48;;;;;;;8.38;4.25;;;15.90;45.50;;;;;;5074041;28;20417;-78
2023/04/22 07:28:14;;;;;;;8.30;4.18;;;16.00;44.20;;;;;;5072557;28;20028;-79
2023/04/22 07:30:39;;;;;;;5.47;4.05;;;16.00;41.90;;;;;;5072597;28;20032;-77
2023/04/22 07:33:05;;;;;;;4.18;3.40;;;16.10;43.10;;;;;;5076013;28;20044;-77
2023/04/22 07:35:31;;;;;;;5.82;3.50;;;16.10;41.90;;;;;;5073377;28;20063;-77
2023/04/22 07:37:56;;;;;;;6.13;3.55;;;16.30;41.50;;;;;;5079213;28;20059;-77
2023/04/22 07:40:22;;;;;;;6.07;3.85;;;16.30;42.30;;;;;;5075995;28;20024;-77
2023/04/22 07:42:48;;;;;;;5.38;3.60;;;16.50;41.40;;;;;;5073705;28;20023;-77
2023/04/22 07:45:13;;;;;;;7.57;3.60;;;16.60;39.90;;;;;;5073366;28;20486;-78
2023/04/22 07:47:39;;;;;;;4.65;3.33;;;16.60;39.40;;;;;;5085848;28;20032;-77
2023/04/22 07:50:05;;;;;;;6.65;3.10;;;16.70;40.20;;;;;;5076307;28;20024;-79
2023/04/22 07:52:31;;;;;;;3.67;2.85;;;16.80;40.60;;;;;;5073751;28;20024;-79
2023/04/22 07:54:57;;;;;;;7.18;3.78;;;17.00;40.40;;;;;;5073974;28;20027;-79
2023/04/22 07:57:22;;;;;;;6.65;3.70;;;17.00;39.90;;;;;;5074097;28;20347;-79
2023/04/22 07:59:48;;;;;;;5.45;3.50;;;16.80;38.30;;;;;;5074297;28;20028;-79
2023/04/22 08:02:14;;;;;;;5.55;3.88;;;16.70;38.00;;;;;;5075409;28;20100;-79
2023/04/22 08:04:40;;;;;;;4.45;3.28;;;16.80;38.50;;;;;;5074197;28;20036;-80
2023/04/22 08:07:05;;;;;;;4.10;3.70;;;16.90;39.00;;;;;;5074164;28;20029;-79
2023/04/22 08:09:31;;;;;;;4.90;3.20;;;17.00;38.40;;;;;;5074768;28;20053;-79
2023/04/22 08:11:57;;;;;;;5.10;3.65;;;17.20;38.70;;;;;;5075489;28;20481;-79
2023/04/22 08:14:22;;;;;;;5.28;3.85;;;17.10;39.60;;;;;;5074198;28;20485;-78
2023/04/22 08:16:50;;;;;;;3.88;2.88;;;17.10;38.30;;;;;;5073960;28;20046;-78
2023/04/22 08:19:16;;;;;;;4.68;3.58;;;17.20;39.40;;;;;;5071396;28;20415;-77
2023/04/22 08:21:41;;;;;;;5.82;3.35;;;17.10;39.00;;;;;;5071750;28;20039;-79
2023/04/22 08:24:07;;;;;;;9.60;3.75;;;17.20;38.00;;;;;;5070037;28;20051;-79
2023/04/22 08:26:33;;;;;;;4.10;3.70;;;17.30;39.50;;;;;;5070340;28;20025;-79
2023/04/22 08:28:59;;;;;;;4.43;2.78;;;17.40;38.90;;;;;;5071851;28;20039;-78
2023/04/22 08:31:25;;;;;;;3.55;3.00;;;17.40;38.80;;;;;;5070502;28;20421;-79
2023/04/22 08:33:51;;;;;;;4.38;3.63;;;17.30;38.20;;;;;;5072763;28;20059;-78
2023/04/22 08:36:17;;;;;;;6.32;3.13;;;17.20;37.80;;;;;;5072371;28;20063;-77
2023/04/22 08:38:42;;;;;;;7.85;4.40;;;17.20;38.40;;;;;;5072749;28;20078;-79
2023/04/22 08:41:09;;;;;;;3.65;3.35;;;17.20;38.70;;;;;;5072301;28;20462;-79
2023/04/22 08:43:35;;;;;;;5.32;3.22;;;17.10;37.80;;;;;;5072346;28;20016;-77
2023/04/22 08:46:01;;;;;;;3.85;3.45;;;17.20;38.30;;;;;;5073568;28;20033;-79
2023/04/22 08:48:26;;;;;;;4.25;3.72;;;17.20;38.60;;;;;;5071024;28;20090;-79
2023/04/22 08:50:52;;;;;;;4.22;3.38;;;17.20;37.70;;;;;;5074936;28;20027;-78
2023/04/22 08:53:20;;;;;;;5.47;3.70;;;17.20;39.30;;;;;;5073120;28;20078;-79
2023/04/22 08:55:46;;;;;;;4.22;3.65;;;17.30;38.00;;;;;;5072826;28;20112;-78
2023/04/22 08:58:12;;;;;;;4.50;3.55;;;17.40;37.00;;;;;;5073178;28;20048;-80
2023/04/22 09:00:41;;;;;;;4.93;3.95;;;17.50;36.80;;;;;;5072117;28;20021;-80
2023/04/22 09:03:08;;;;;;;4.63;3.72;;;17.40;37.50;;;;;;5073438;28;20009;-78
2023/04/22 09:05:36;;;;;;;7.32;3.60;;;17.40;39.00;;;;;;5073334;28;20016;-78
2023/04/22 09:08:02;;;;;;;5.70;3.90;;;17.50;39.00;;;;;;5071815;28;20017;-79
2023/04/22 09:10:29;;;;;;;5.28;4.03;;;17.40;38.30;;;;;;5074599;28;20077;-79
2023/04/22 09:12:57;;;;;;;4.28;3.60;;;17.50;39.20;;;;;;5075947;28;20031;-78
2023/04/22 09:15:23;;;;;;;7.50;4.05;;;17.60;39.40;;;;;;5080624;28;20063;-79
2023/04/22 09:17:51;;;;;;;6.07;4.00;;;17.60;38.30;;;;;;5071075;28;20119;-78
2023/04/22 09:20:18;;;;;;;6.22;4.20;;;17.50;37.50;;;;;;5071559;28;20024;-79
2023/04/22 09:22:46;;;;;;;4.80;4.10;;;17.70;38.60;;;;;;5070644;28;20036;-78
2023/04/22 09:25:23;;;;;;;6.32;3.75;;;17.90;39.20;;;;;;5072573;28;20056;-78
2023/04/22 09:27:53;;;;;;;7.18;3.58;;;18.00;37.00;;;;;;5072927;28;20036;-80
2023/04/22 09:30:28;;;;;;;5.60;3.60;;;18.10;39.10;;;;;;5071249;28;20017;-80
2023/04/22 09:32:56;;;;;;;4.22;3.35;;;17.90;37.60;;;;;;5070840;28;20087;-80
2023/04/22 09:35:30;;;;;;;6.07;3.47;;;17.90;37.60;;;;;;5068936;28;20116;-80
2023/04/22 09:37:58;;;;;;;5.78;3.95;;;17.80;37.30;;;;;;5068101;28;20433;-80
2023/04/22 09:40:24;;;;;;;4.80;4.10;;;17.80;38.10;;;;;;5070243;28;20521;-80
2023/04/22 09:42:54;;;;;;;5.35;3.55;;;17.90;37.10;;;;;;5070175;28;20417;-80
2023/04/22 09:45:38;;;;;;;4.63;3.60;;;18.00;38.00;;;;;;5071035;28;20070;-80
2023/04/22 09:48:12;;;;;;;3.75;3.35;;;18.10;37.40;;;;;;5068374;28;20452;-77
2023/04/22 09:50:41;;;;;;;5.90;4.10;;;18.10;36.00;;;;;;5069397;28;20474;-77
2023/04/22 09:53:10;;;;;;;4.68;3.83;;;18.10;38.40;;;;;;5068538;28;20024;-79
2023/04/22 09:55:40;;;;;;;4.20;3.65;;;18.10;38.30;;;;;;5070963;28;20043;-78
2023/04/22 09:58:11;;;;;;;8.15;3.30;;;18.10;38.60;;;;;;5072319;28;20102;-78
2023/04/22 10:00:42;;;;;;;6.22;4.10;;;18.20;38.20;;;;;;5073218;28;20070;-79
2023/04/22 10:03:08;;;;;;;4.25;3.85;;;18.30;39.20;;;;;;5073461;28;20032;-78
2023/04/22 10:05:36;;;;;;;4.93;4.18;;;18.30;39.30;;;;;;5071277;28;20227;-78
2023/04/22 10:08:07;;;;;;;5.75;3.97;;;18.20;39.40;;;;;;5070201;28;20104;-80
2023/04/22 10:10:33;;;;;;;6.30;3.50;;;18.20;37.70;;;;;;5068390;28;20052;-80
2023/04/22 10:13:00;;;;;;;5.90;3.80;;;18.10;36.80;;;;;;5069625;28;20025;-80
2023/04/22 10:15:30;;;;;;;4.85;3.25;;;18.10;36.50;;;;;;5068300;28;20073;-79
2023/04/22 10:17:56;;;;;;;5.78;3.65;;;18.20;35.60;;;;;;5068475;28;20060;-79
2023/04/22 10:20:24;;;;;;;4.63;3.60;;;18.20;36.10;;;;;;5069271;28;20093;-80
2023/04/22 10:22:51;;;;;;;5.85;4.38;;;18.20;35.60;;;;;;5069174;28;20117;-80
2023/04/22 10:25:24;;;;;;;5.72;3.63;;;18.30;37.60;;;;;;5069302;28;20024;-79
2023/04/22 10:28:07;;;;;;;7.70;3.92;;;18.30;36.90;;;;;;5069011;28;20039;-79
2023/04/22 10:30:36;;;;;;;6.30;3.80;;;18.20;37.10;;;;;;5067743;28;20020;-79
2023/04/22 10:33:20;;;;;;;5.10;3.85;;;18.30;36.50;;;;;;5067640;28;20423;-79
2023/04/22 10:36:13;;;;;;;4.40;3.60;;;18.10;36.80;;;;;;5069175;28;20385;-80
2023/04/22 10:38:41;;;;;;;5.95;3.67;;;18.30;37.80;;;;;;5067705;28;20025;-79
2023/04/22 10:41:13;;;;;;;4.25;3.50;;;18.20;38.20;;;;;;5072199;28;20027;-79
2023/04/22 10:43:43;;;;;;;4.85;3.58;;;18.30;37.40;;;;;;5072569;28;20016;-80
2023/04/22 10:46:31;;;;;;;4.80;3.00;;;18.40;38.60;;;;;;5071788;28;20035;-79
2023/04/22 10:49:05;;;;;;;4.43;2.88;;;18.50;38.00;;;;;;5072171;28;20040;-80
2023/04/22 10:51:42;;;;;;;4.43;3.78;;;18.30;37.10;;;;;;5071662;28;20123;-79
2023/04/22 10:54:26;;;;;;;4.20;3.70;;;18.50;37.80;;;;;;5073100;28;20068;-80
2023/04/22 10:57:21;;;;;;;4.47;3.70;;;18.60;37.60;;;;;;5071573;28;20025;-80
2023/04/22 10:59:50;;;;;;;4.90;3.60;;;18.60;38.10;;;;;;5072897;28;20040;-79
2023/04/22 11:02:17;;;;;;;4.25;3.42;;;18.60;36.60;;;;;;5072771;28;20020;-79
2023/04/22 11:04:43;;;;;;;9.27;3.80;;;18.60;36.70;;;;;;5071688;28;20377;-79
2023/04/22 11:07:29;;;;;;;4.15;3.70;;;18.70;37.70;;;;;;5071654;28;20035;-80
2023/04/22 11:10:05;;;;;;;6.07;3.05;;;18.70;38.10;;;;;;5073189;28;20016;-81
2023/04/22 11:12:37;;;;;;;5.32;3.55;;;18.70;37.10;;;;;;5071717;28;20466;-79
2023/04/22 11:15:16;;;;;;;5.83;3.47;;;18.70;37.00;;;;;;5073087;28;20104;-79
2023/04/22 11:17:46;;;;;;;5.07;3.85;;;18.80;37.50;;;;;;5072764;28;20299;-79
2023/04/22 11:20:17;;;;;;;4.40;3.50;;;19.00;38.00;;;;;;5072818;28;20043;-80
2023/04/22 11:22:47;;;;;;;4.95;3.63;;;19.00;36.70;;;;;;5072609;28;20029;-80
2023/04/22 11:25:13;;;;;;;7.78;4.15;;;19.10;35.90;;;;;;5072819;28;20021;-80
2023/04/22 11:27:42;;;;;;;5.65;3.92;;;19.20;36.50;;;;;;5071417;28;20027;-80
2023/04/22 11:30:12;;;;;;;3.97;3.30;;;19.10;37.80;;;;;;5071405;28;20052;-80
2023/04/22 11:32:40;;;;;;;5.68;3.28;;;18.70;38.30;;;;;;5076009;28;20041;-80
2023/04/22 11:35:08;;;;;;;7.68;4.43;;;18.60;37.40;;;;;;5075097;28;20071;-80
2023/04/22 11:37:45;;;;;;;5.32;3.78;;;18.60;37.10;;;;;;5074907;28;20375;-79
2023/04/22 11:40:20;;;;;;;4.40;3.83;;;18.60;37.60;;;;;;5074748;28;20149;-80
2023/04/22 11:42:47;;;;;;;4.93;3.40;;;18.50;37.60;;;;;;5074766;28;20071;-79
2023/04/22 11:45:15;;;;;;;4.85;3.95;;;18.50;36.90;;;;;;5076472;28;20021;-79
2023/04/22 11:47:41;;;;;;;4.88;3.80;;;18.80;38.40;;;;;;5076138;28;20020;-79
2023/04/22 11:50:10;;;;;;;7.88;4.20;;;18.80;36.90;;;;;;5074955;28;20086;-79
2023/04/22 11:52:54;;;;;;;8.65;4.10;;;18.90;38.90;;;;;;5075983;28;20418;-79
2023/04/22 11:55:20;;;;;;;4.38;3.83;;;18.70;38.90;;;;;;5074585;28;20462;-80
2023/04/22 11:57:51;;;;;;;4.05;3.65;;;18.60;38.40;;;;;;5093997;28;20119;-79
2023/04/22 12:00:17;;;;;;;6.47;3.57;;;18.60;36.50;;;;;;5094816;28;20073;-80
2023/04/22 12:02:57;;;;;;;6.55;3.72;;;18.80;38.80;;;;;;5095926;28;20020;-80
2023/04/22 12:05:42;;;;;;;5.97;3.58;;;18.80;37.80;;;;;;5096037;28;20020;-79
2023/04/22 12:08:11;;;;;;;3.78;3.20;;;18.90;37.80;;;;;;5094386;28;20042;-80
2023/04/22 12:10:56;;;;;;;4.78;3.45;;;19.00;36.00;;;;;;5074485;28;20402;-79
2023/04/22 12:13:28;;;;;;;5.25;3.65;;;19.10;37.70;;;;;;5073906;28;20527;-79
2023/04/22 12:16:03;;;;;;;6.63;3.85;;;19.20;38.30;;;;;;5073937;28;20054;-79
2023/04/22 12:18:40;;;;;;;5.88;3.33;;;19.10;36.10;;;;;;5074014;28;20143;-79
2023/04/22 12:21:06;;;;;;;5.22;3.63;;;19.00;36.00;;;;;;5074045;28;20074;-80
2023/04/22 12:23:52;;;;;;;5.07;3.67;;;19.00;36.10;;;;;;5074759;28;20020;-79
2023/04/22 12:26:20;;;;;;;5.07;3.28;;;19.00;35.70;;;;;;5054980;28;20029;-80
2023/04/22 12:28:46;;;;;;;4.20;3.50;;;19.00;35.90;;;;;;5053752;28;20120;-80
2023/04/22 12:31:13;;;;;;;5.53;3.60;;;19.10;36.70;;;;;;5053806;28;20028;-80
2023/04/22 12:33:38;;;;;;;5.28;3.08;;;19.00;36.10;;;;;;5057268;28;20037;-80
2023/04/22 12:36:04;;;;;;;3.53;3.00;;;18.90;35.60;;;;;;5075051;28;20021;-80
2023/04/22 12:38:30;;;;;;;3.45;3.15;;;19.00;36.60;;;;;;5073433;28;20059;-80
2023/04/22 12:40:57;;;;;;;5.13;3.63;;;18.80;36.30;;;;;;5072394;28;20532;-81
2023/04/22 12:43:23;;;;;;;6.13;3.80;;;18.90;36.20;;;;;;5053399;28;20017;-80
2023/04/22 12:45:49;;;;;;;13.85;4.70;;;18.90;35.90;;;;;;5054628;28;20048;-79
2023/04/22 12:48:15;;;;;;;4.25;3.85;;;19.00;36.50;;;;;;5054812;28;20100;-80